Barbados Meteorological Services
Auto gathered TAF list
Powered by Apparatus software
For Flight AA1089
Contact Number 1-(246)-535-0021/2/3/4/5/6
WEB: http://www.barbadosweather.org

**********************************************

2018/12/16 18:06
TAF TLPL 161702Z 1618/1718 09020KT 9999 SCT027 PROB30
TEMPO 1700/1712 SHRA


**********************************************
2018/12/16 18:36
TAF TJSJ 161731Z 1618/1718 08015KT P6SM VCSH SCT025 SCT040
TEMPO 1618/1622 VRB16G22KT 5SM SHRA BKN025 BKN040
FM162300 10010KT P6SM FEW030 SCT060
FM170400 13004KT P6SM VCSH SCT025 SCT040
FM171430 08012KT P6SM FEW030 SCT050


**********************************************
2018/12/16 10:38
TAF TFFR 161029Z 1610/1706 CNL


**********************************************
2018/12/16 18:50
TAF TBPB 161700Z 1618/1718 09020KT 9999 SCT022 SCT034 PROB30
TEMPO 1700/1709 09020G30KT SHRA BKN015 BKN034


**********************************************
2018/12/16 18:01
TAF TAPA 161700Z 1618/1718 11013KT 9999 SCT018


**********************************************
2018/12/16 18:45
TAF MYNN 161700Z 1618/1718 34008KT 9999 VCSH SCT018 BKN180
BECMG 1700/1702 01007KT 9999 SCT023


**********************************************
2018/12/16 18:56
TAF MTPP 161730Z 1618/1718 09012KT 9999 FEW026
TEMPO 1618/1622 10008KT
FM170200 08007KT 7000 NSC
BECMG 1713/1717 11015G25KT


**********************************************
2018/12/16 18:42
TAF MDSD 161600Z 1618/1718 12010KT 9999 FEW020
BECMG 1704/1706 04004KT


**********************************************
2018/12/16 18:46
TAF KSFB 161744Z 1618/1718 33005KT P6SM OVC035
FM170000 31004KT P6SM FEW040 SCT250
FM171400 32006KT P6SM BKN250


**********************************************
2018/12/16 18:34
TAF KPHL 161730Z 1618/1724 05017G24KT 4SM -RADZ BR OVC010
TEMPO 1618/1622 4SM RADZ BR OVC008
FM170000 36013KT 5SM -RADZ BR OVC010
FM170300 33010KT P6SM BKN015
FM170700 32008KT P6SM BKN050
FM171200 30010KT P6SM SCT120


**********************************************
2018/12/16 18:34
TAF KPBI 161732Z 1618/1718 31009KT P6SM FEW035 SCT250
FM170000 29003KT P6SM FEW250
FM171500 31007KT P6SM SKC


**********************************************
2018/12/16 18:34
TAF KOPF 161732Z 1618/1718 31008KT P6SM FEW035 SCT250
FM170000 30003KT P6SM FEW250
FM171500 31007KT P6SM SKC


**********************************************
2018/12/16 18:34
TAF KMIA 161732Z 1618/1724 30009KT P6SM FEW035 SCT250
FM170100 29003KT P6SM FEW250
FM171500 31007KT P6SM SKC


**********************************************
2018/12/16 18:46
TAF KMCO 161744Z 1618/1724 31008KT P6SM SCT025 BKN035
FM170000 31005KT P6SM FEW040 SCT250
FM171400 32006KT P6SM BKN250


**********************************************
2018/12/16 18:40
TAF KJFK 161732Z 1618/1724 05017G25KT 6SM -RA BR BKN010 BKN015 OVC025
TEMPO 1622/1624 3SM -RA BR BKN010
FM170000 01015G24KT 3SM -RA BR OVC010
FM170900 33014G20KT P6SM BKN020 OVC035
FM171300 30012G20KT P6SM SCT035 BKN050
FM171800 31019G33KT P6SM BKN035


**********************************************
2018/12/16 18:22
TAF KJAX 161720Z 1618/1718 28010KT P6SM SCT025
TEMPO 1618/1622 BKN025
FM162200 29003KT P6SM BKN020 BKN250
FM171500 29006KT P6SM SCT020 BKN200


**********************************************
2018/12/16 18:40
TAF KFLL 161732Z 1618/1724 31009KT P6SM FEW035 SCT250
FM170200 29004KT P6SM FEW250
FM171500 31007KT P6SM SKC


**********************************************
2018/12/16 18:34
TAF KEWR 161732Z 1618/1724 03014G21KT 4SM -RA BR BKN007 OVC012
TEMPO 1622/1624 6SM -RA BR BKN010
FM170000 35014G21KT 5SM -RA BR BKN007 OVC010
FM170800 32010G18KT P6SM BKN020 OVC035
FM171200 29010G18KT P6SM SCT020 BKN040
FM171800 31018G30KT P6SM BKN035


**********************************************
2018/12/16 18:40
TAF KCLT 161738Z 1618/1724 26010KT P6SM FEW100 FEW250
FM170200 30002KT P6SM FEW250
FM171600 28006KT P6SM SKC


**********************************************
2018/12/16 18:24
TAF KATL 161721Z 1618/1724 30012G19KT P6SM BKN025
FM162300 31008KT P6SM FEW015 BKN035
FM170200 32006KT P6SM BKN200


**********************************************